createdAt,value
2019-02-28T00:02:24.130Z,3.43
2019-02-28T00:07:53.529Z,4.30
2019-02-28T00:13:22.989Z,3.70
2019-02-28T00:18:52.319Z,3.10
2019-02-28T00:24:21.688Z,2.67
2019-02-28T00:29:53.056Z,3.07
2019-02-28T00:35:22.871Z,2.00
2019-02-28T00:40:53.550Z,2.27
2019-02-28T00:46:22.864Z,2.20
2019-02-28T00:51:52.179Z,2.20
2019-02-28T00:57:29.342Z,2.13
2019-02-28T01:03:00.852Z,1.93
2019-02-28T01:08:30.246Z,2.03
2019-02-28T01:14:02.409Z,1.70
2019-02-28T01:19:31.966Z,1.70
2019-02-28T01:25:01.268Z,1.70
2019-02-28T01:30:30.754Z,1.73
2019-02-28T01:36:00.257Z,1.57
2019-02-28T01:41:29.595Z,1.70
2019-02-28T01:46:58.912Z,1.30
2019-02-28T01:52:28.232Z,1.57
2019-02-28T01:57:57.556Z,1.53
2019-02-28T02:03:26.897Z,1.50
2019-02-28T02:08:58.254Z,1.40
2019-02-28T02:14:27.630Z,1.67
2019-02-28T02:19:56.946Z,1.63
2019-02-28T02:25:26.391Z,1.57
2019-02-28T02:30:55.785Z,1.37
2019-02-28T02:36:25.261Z,1.53
2019-02-28T02:41:54.537Z,1.50
2019-02-28T02:47:24.241Z,1.50
2019-02-28T02:52:53.921Z,1.70
2019-02-28T02:58:27.216Z,1.40
2019-02-28T03:03:54.313Z,1.93
2019-02-28T03:09:23.812Z,1.40
2019-02-28T03:14:53.219Z,1.10
2019-02-28T03:20:22.528Z,1.50
2019-02-28T03:25:51.992Z,1.60
2019-02-28T03:31:21.452Z,1.33
2019-02-28T03:36:57.006Z,1.43
2019-02-28T03:42:28.568Z,1.40
2019-02-28T03:47:58.435Z,1.50
2019-02-28T03:53:24.885Z,1.60
2019-02-28T03:58:54.283Z,1.30
2019-02-28T04:04:23.584Z,1.37
2019-02-28T04:09:52.903Z,1.50
2019-02-28T04:15:22.444Z,1.57
2019-02-28T04:20:51.850Z,1.37
2019-02-28T04:26:21.266Z,1.20
2019-02-28T04:31:51.656Z,1.70
2019-02-28T04:37:21.812Z,1.67
2019-02-28T04:42:51.143Z,1.60
2019-02-28T04:48:20.476Z,2.83
2019-02-28T04:53:53.145Z,2.53
2019-02-28T04:59:22.891Z,1.67
2019-02-28T05:04:52.254Z,1.90
2019-02-28T05:10:22.270Z,1.80
2019-02-28T05:15:53.459Z,2.60
2019-02-28T05:21:22.879Z,1.93
2019-02-28T05:26:52.244Z,1.43
2019-02-28T05:32:21.622Z,2.33
2019-02-28T05:37:51.555Z,2.10
2019-02-28T05:43:21.212Z,2.10
2019-02-28T05:48:50.587Z,1.70
2019-02-28T05:54:19.951Z,1.70
2019-02-28T05:59:49.326Z,1.63
2019-02-28T06:05:18.749Z,1.90
2019-02-28T06:10:48.451Z,1.90
2019-02-28T06:16:17.862Z,1.63
2019-02-28T06:21:47.561Z,2.00
2019-02-28T06:27:17.944Z,2.03
2019-02-28T06:32:47.426Z,2.20
2019-02-28T06:38:19.234Z,2.70
2019-02-28T06:43:50.275Z,2.20
2019-02-28T06:49:19.439Z,2.53
2019-02-28T06:54:49.293Z,2.47
2019-02-28T07:00:23.541Z,2.20
2019-02-28T07:05:50.559Z,2.33
2019-02-28T07:11:20.792Z,2.00
2019-02-28T07:16:50.468Z,3.63
2019-02-28T07:22:25.887Z,3.97
2019-02-28T07:27:55.276Z,4.07
2019-02-28T07:33:24.811Z,4.73
2019-02-28T07:38:54.714Z,5.07
2019-02-28T07:44:24.471Z,5.13
2019-02-28T07:49:53.923Z,6.23
2019-02-28T07:55:23.517Z,6.50
2019-02-28T08:00:54.080Z,6.00
2019-02-28T08:06:24.357Z,7.43
2019-02-28T08:11:55.165Z,7.97
2019-02-28T08:17:25.113Z,7.07
2019-02-28T08:22:56.818Z,7.60
2019-02-28T08:28:26.312Z,8.03
2019-02-28T08:33:55.681Z,7.90
2019-02-28T08:39:25.158Z,5.90
2019-02-28T08:44:57.756Z,8.20
2019-02-28T08:50:26.755Z,7.00
2019-02-28T08:55:56.488Z,7.57
2019-02-28T09:01:26.006Z,7.47
2019-02-28T09:06:55.477Z,6.93
2019-02-28T09:12:24.865Z,7.97
2019-02-28T09:17:58.428Z,8.67
2019-02-28T09:23:25.689Z,8.57
2019-02-28T09:28:54.992Z,8.23
2019-02-28T09:34:24.399Z,7.93
2019-02-28T09:39:54.243Z,7.60
2019-02-28T09:45:33.353Z,8.00
2019-02-28T09:51:02.683Z,8.73
2019-02-28T09:56:32.087Z,8.63
2019-02-28T10:02:05.035Z,7.50
2019-02-28T10:07:32.576Z,6.83
2019-02-28T10:13:02.054Z,7.33
2019-02-28T10:18:31.379Z,5.90
2019-02-28T10:24:00.697Z,6.67
2019-02-28T10:29:30.097Z,6.50
2019-02-28T10:35:01.216Z,7.67
2019-02-28T10:40:33.792Z,6.87
2019-02-28T10:46:03.182Z,6.57
2019-02-28T10:51:32.594Z,8.10
2019-02-28T10:57:03.103Z,7.47
2019-02-28T11:02:33.174Z,9.17
2019-02-28T11:08:03.616Z,8.13
2019-02-28T11:13:33.137Z,6.30
2019-02-28T11:19:02.645Z,6.80
2019-02-28T11:24:32.074Z,8.53
2019-02-28T11:30:01.792Z,6.60
2019-02-28T11:35:31.847Z,6.30
2019-02-28T11:41:01.350Z,7.10
2019-02-28T11:46:35.594Z,7.93
2019-02-28T11:52:01.963Z,6.20
2019-02-28T11:57:31.467Z,7.53
2019-02-28T12:03:01.064Z,6.77
2019-02-28T12:08:30.627Z,6.97
2019-02-28T12:13:59.960Z,5.87
2019-02-28T12:19:29.447Z,7.00
2019-02-28T12:24:58.889Z,7.13
2019-02-28T12:30:35.596Z,7.60
2019-02-28T12:36:05.150Z,5.67
2019-02-28T12:41:34.587Z,6.77
2019-02-28T12:47:06.472Z,6.40
2019-02-28T12:52:35.065Z,6.90
2019-02-28T12:58:05.629Z,7.07
2019-02-28T13:03:35.037Z,5.43
2019-02-28T13:09:06.018Z,6.63
2019-02-28T13:14:36.812Z,6.53
2019-02-28T13:20:16.470Z,7.20
2019-02-28T13:25:46.090Z,7.90
2019-02-28T13:31:15.522Z,7.57
2019-02-28T13:36:45.117Z,8.47
2019-02-28T13:42:14.786Z,9.30
2019-02-28T13:47:46.300Z,9.50
2019-02-28T13:53:18.033Z,9.73
2019-02-28T13:58:47.152Z,8.60
2019-02-28T14:04:18.708Z,8.63
2019-02-28T14:09:49.064Z,9.10
2019-02-28T14:15:25.633Z,8.77
2019-02-28T14:20:55.011Z,8.97
2019-02-28T14:26:24.509Z,8.23
2019-02-28T14:31:53.979Z,8.27
2019-02-28T14:37:23.412Z,8.37
2019-02-28T14:42:52.886Z,8.43
2019-02-28T14:48:22.286Z,8.33
2019-02-28T14:53:51.625Z,8.23
2019-02-28T14:59:21.131Z,10.13
2019-02-28T15:04:50.575Z,9.30
2019-02-28T15:10:23.090Z,9.10
2019-02-28T15:15:53.120Z,8.63
2019-02-28T15:21:23.776Z,8.90
2019-02-28T15:26:53.132Z,8.93
2019-02-28T15:32:23.484Z,9.30
2019-02-28T15:37:53.097Z,8.20
2019-02-28T15:43:22.413Z,8.93
2019-02-28T15:48:56.088Z,8.40
2019-02-28T15:54:26.280Z,8.27
2019-02-28T15:59:55.701Z,7.20
2019-02-28T16:05:25.226Z,8.73
2019-02-28T16:10:54.677Z,7.33
2019-02-28T16:16:29.980Z,7.73
2019-02-28T16:21:59.696Z,8.37
2019-02-28T16:27:32.050Z,8.50
2019-02-28T16:33:00.708Z,7.70
2019-02-28T16:38:30.352Z,8.00
2019-02-28T16:44:08.873Z,7.67
2019-02-28T16:49:41.420Z,7.87
2019-02-28T16:55:12.629Z,8.53
2019-02-28T17:00:43.625Z,8.70
2019-02-28T17:06:13.552Z,8.70
2019-02-28T17:11:44.801Z,9.13
2019-02-28T17:17:15.835Z,9.60
2019-02-28T17:22:46.940Z,7.20
2019-02-28T17:28:30.336Z,8.97
2019-02-28T17:33:59.826Z,10.07
2019-02-28T17:39:29.307Z,10.37
2019-02-28T17:45:04.900Z,8.43
2019-02-28T17:51:22.029Z,9.53
2019-02-28T17:57:16.462Z,9.63
2019-02-28T18:03:12.988Z,9.40
2019-02-28T18:09:14.756Z,10.30
2019-02-28T18:15:05.548Z,9.77
2019-02-28T18:21:05.755Z,10.10
2019-02-28T18:26:59.555Z,10.87
2019-02-28T18:32:33.256Z,9.83
2019-02-28T18:38:03.125Z,9.17
2019-02-28T18:43:32.608Z,10.80
2019-02-28T18:49:02.867Z,9.43
2019-02-28T18:54:32.222Z,11.40
2019-02-28T19:00:02.498Z,10.80
2019-02-28T19:05:32.765Z,11.30
2019-02-28T19:11:02.208Z,11.40
2019-02-28T19:16:31.470Z,9.57
2019-02-28T19:22:02.731Z,10.70
2019-02-28T19:27:32.022Z,11.97
2019-02-28T19:33:03.306Z,9.90
2019-02-28T19:38:32.580Z,11.50
2019-02-28T19:44:01.897Z,10.27
2019-02-28T19:49:31.175Z,10.50
2019-02-28T19:55:02.576Z,9.90
2019-02-28T20:00:31.853Z,10.80
2019-02-28T20:06:01.172Z,9.40
2019-02-28T20:11:31.491Z,10.53
2019-02-28T20:17:00.865Z,10.47
2019-02-28T20:22:30.231Z,12.27
2019-02-28T20:27:59.515Z,10.03
2019-02-28T20:33:28.808Z,11.00
2019-02-28T20:39:00.067Z,10.80
2019-02-28T20:44:29.357Z,11.50
2019-02-28T20:49:59.636Z,10.67
2019-02-28T20:55:29.886Z,10.23
2019-02-28T21:00:59.245Z,10.57
2019-02-28T21:06:28.595Z,11.57
2019-02-28T21:11:59.407Z,10.97
2019-02-28T21:17:29.787Z,10.57
2019-02-28T21:23:04.108Z,10.63
2019-02-28T21:28:40.191Z,11.47
2019-02-28T21:34:16.305Z,11.53
2019-02-28T21:39:45.893Z,10.93
2019-02-28T21:45:24.931Z,11.83
2019-02-28T21:50:54.245Z,11.50
2019-02-28T21:56:24.738Z,11.20
2019-02-28T22:01:58.644Z,13.00
2019-02-28T22:07:28.095Z,11.27
2019-02-28T22:12:59.679Z,13.50
2019-02-28T22:18:28.930Z,12.93
2019-02-28T22:23:58.408Z,12.47
2019-02-28T22:29:29.823Z,12.80
2019-02-28T22:35:01.068Z,13.07
2019-02-28T22:40:31.819Z,13.20
2019-02-28T22:46:30.283Z,13.97
2019-02-28T22:52:00.130Z,13.00
2019-02-28T22:57:33.923Z,13.33
2019-02-28T23:03:07.465Z,11.70
2019-02-28T23:08:36.994Z,10.37
2019-02-28T23:14:06.394Z,11.27
2019-02-28T23:19:36.917Z,10.13
2019-02-28T23:25:07.357Z,10.83
2019-02-28T23:31:00.842Z,10.07
2019-02-28T23:36:30.252Z,10.97
2019-02-28T23:42:08.963Z,10.50
2019-02-28T23:47:38.462Z,11.47
2019-02-28T23:53:07.987Z,9.60
2019-02-28T23:58:37.428Z,10.97
